createdAt,value
2018-12-18T00:01:50.347Z,37.88
2018-12-18T00:04:27.714Z,38.05
2018-12-18T00:07:03.307Z,38.98
2018-12-18T00:09:38.025Z,37.40
2018-12-18T00:12:12.539Z,38.23
2018-12-18T00:14:47.549Z,36.15
2018-12-18T00:17:22.705Z,37.95
2018-12-18T00:19:57.349Z,35.73
2018-12-18T00:22:32.479Z,35.92
2018-12-18T00:25:06.884Z,33.15
2018-12-18T00:27:41.396Z,33.20
2018-12-18T00:30:15.959Z,35.15
2018-12-18T00:32:50.475Z,38.90
2018-12-18T00:35:24.922Z,35.10
2018-12-18T00:37:59.411Z,36.45
2018-12-18T00:40:34.860Z,34.13
2018-12-18T00:43:09.595Z,36.48
2018-12-18T00:45:44.324Z,33.13
2018-12-18T00:48:18.866Z,37.67
2018-12-18T00:50:53.335Z,34.53
2018-12-18T00:53:27.903Z,36.10
2018-12-18T00:56:02.535Z,36.20
2018-12-18T00:58:38.233Z,36.13
2018-12-18T01:01:12.719Z,33.75
2018-12-18T01:03:52.764Z,34.20
2018-12-18T01:06:28.315Z,36.25
2018-12-18T01:09:08.763Z,35.23
2018-12-18T01:11:48.539Z,33.35
2018-12-18T01:14:22.997Z,35.85
2018-12-18T01:16:58.045Z,33.55
2018-12-18T01:19:33.823Z,37.80
2018-12-18T01:22:08.726Z,36.40
2018-12-18T01:24:43.261Z,32.42
2018-12-18T01:27:18.339Z,33.98
2018-12-18T01:29:52.847Z,36.80
2018-12-18T01:32:27.198Z,32.25
2018-12-18T01:35:01.770Z,35.17
2018-12-18T01:37:36.447Z,37.00
2018-12-18T01:40:10.917Z,36.25
2018-12-18T01:42:45.313Z,34.30
2018-12-18T01:45:19.954Z,32.70
2018-12-18T01:47:55.991Z,34.45
2018-12-18T01:50:30.366Z,35.25
2018-12-18T01:53:04.795Z,33.90
2018-12-18T01:58:18.624Z,33.28
2018-12-18T02:00:53.299Z,33.00
2018-12-18T02:03:27.659Z,33.73
2018-12-18T02:06:02.161Z,33.02
2018-12-18T02:08:36.639Z,34.98
2018-12-18T02:11:10.861Z,30.50
2018-12-18T02:13:45.354Z,34.45
2018-12-18T02:16:19.967Z,32.33
2018-12-18T02:18:56.145Z,33.28
2018-12-18T02:21:30.463Z,31.30
2018-12-18T02:24:05.583Z,29.25
2018-12-18T02:26:41.506Z,31.60
2018-12-18T02:29:15.867Z,31.73
2018-12-18T02:31:50.697Z,28.73
2018-12-18T02:34:24.951Z,33.13
2018-12-18T02:36:59.443Z,32.42
2018-12-18T02:39:33.859Z,30.05
2018-12-18T02:42:08.263Z,30.60
2018-12-18T02:44:42.732Z,30.57
2018-12-18T02:47:17.149Z,31.07
2018-12-18T02:49:51.508Z,30.55
2018-12-18T02:52:25.915Z,28.45
2018-12-18T02:55:00.302Z,30.27
2018-12-18T02:57:34.716Z,29.90
2018-12-18T03:00:10.097Z,28.10
2018-12-18T03:02:44.692Z,30.30
2018-12-18T03:05:19.907Z,26.75
2018-12-18T03:07:54.523Z,27.87
2018-12-18T03:10:29.269Z,29.92
2018-12-18T03:13:03.981Z,29.60
2018-12-18T03:15:40.316Z,33.67
2018-12-18T03:18:14.692Z,29.82
2018-12-18T03:20:49.056Z,28.55
2018-12-18T03:23:23.218Z,27.93
2018-12-18T03:25:57.970Z,26.55
2018-12-18T03:28:32.488Z,26.77
2018-12-18T03:31:08.840Z,25.23
2018-12-18T03:33:43.277Z,28.57
2018-12-18T03:36:21.207Z,24.52
2018-12-18T03:38:55.978Z,26.73
2018-12-18T03:41:30.621Z,27.05
2018-12-18T03:44:05.232Z,24.75
2018-12-18T03:46:40.473Z,26.48
2018-12-18T03:49:15.215Z,26.25
2018-12-18T03:51:50.020Z,29.37
2018-12-18T03:54:24.464Z,27.65
2018-12-18T03:56:58.954Z,28.98
2018-12-18T03:59:33.625Z,29.55
2018-12-18T04:02:08.402Z,27.35
2018-12-18T04:04:44.858Z,25.02
2018-12-18T04:07:19.602Z,25.37
2018-12-18T04:09:54.544Z,25.68
2018-12-18T04:12:30.113Z,28.55
2018-12-18T04:15:05.551Z,26.45
2018-12-18T04:17:39.974Z,26.90
2018-12-18T04:20:18.385Z,26.15
2018-12-18T04:22:54.266Z,28.40
2018-12-18T04:25:28.565Z,29.60
2018-12-18T04:28:03.687Z,26.20
2018-12-18T04:30:42.437Z,26.50
2018-12-18T04:33:17.175Z,24.12
2018-12-18T04:35:51.469Z,28.95
2018-12-18T04:38:25.929Z,26.57
2018-12-18T04:41:01.563Z,29.12
2018-12-18T04:43:36.794Z,30.08
2018-12-18T04:46:12.864Z,29.63
2018-12-18T04:48:47.688Z,29.90
2018-12-18T04:51:32.345Z,30.23
2018-12-18T04:54:09.868Z,29.25
2018-12-18T04:56:45.011Z,31.37
2018-12-18T04:59:19.536Z,30.65
2018-12-18T05:01:54.338Z,31.62
2018-12-18T05:04:28.947Z,29.52
2018-12-18T05:07:03.632Z,29.05
2018-12-18T05:09:38.479Z,29.18
2018-12-18T05:12:12.939Z,27.75
2018-12-18T05:14:48.772Z,30.55
2018-12-18T05:17:23.422Z,28.12
2018-12-18T05:19:58.569Z,28.40
2018-12-18T05:22:33.595Z,27.27
2018-12-18T05:25:08.562Z,26.65
2018-12-18T05:27:43.203Z,25.80
2018-12-18T05:30:18.492Z,26.70
2018-12-18T05:32:53.177Z,26.77
2018-12-18T05:35:29.044Z,25.43
2018-12-18T05:38:05.250Z,27.60
2018-12-18T05:40:40.367Z,26.87
2018-12-18T05:43:15.913Z,27.05
2018-12-18T05:45:50.597Z,26.70
2018-12-18T05:51:05.627Z,25.40
2018-12-18T05:53:41.456Z,26.93
2018-12-18T05:56:16.014Z,27.27
2018-12-18T05:58:51.662Z,24.82
2018-12-18T06:01:26.275Z,25.30
2018-12-18T06:04:01.786Z,24.87
2018-12-18T06:06:37.793Z,23.85
2018-12-18T06:09:13.342Z,24.80
2018-12-18T06:12:03.159Z,25.70
2018-12-18T06:14:49.356Z,24.92
2018-12-18T06:17:24.921Z,23.85
2018-12-18T06:20:02.039Z,23.30
2018-12-18T06:22:45.187Z,21.90
2018-12-18T06:25:23.116Z,22.07
2018-12-18T06:27:57.909Z,22.55
2018-12-18T06:30:32.217Z,24.50
2018-12-18T06:33:06.651Z,23.00
2018-12-18T06:35:41.880Z,22.93
2018-12-18T06:38:16.883Z,23.92
2018-12-18T06:40:51.322Z,21.85
2018-12-18T06:43:30.106Z,21.90
2018-12-18T06:46:05.667Z,20.48
2018-12-18T06:48:41.045Z,21.85
2018-12-18T06:51:15.991Z,23.80
2018-12-18T06:53:50.545Z,24.07
2018-12-18T06:56:25.079Z,21.45
2018-12-18T06:58:59.463Z,23.52
2018-12-18T07:01:34.077Z,23.30
2018-12-18T07:04:10.754Z,21.12
2018-12-18T07:07:07.871Z,20.45
2018-12-18T07:09:43.260Z,19.62
2018-12-18T07:12:22.343Z,19.60
2018-12-18T07:14:58.490Z,21.75
2018-12-18T07:17:35.179Z,18.77
2018-12-18T07:20:11.332Z,18.52
2018-12-18T07:22:47.182Z,19.48
2018-12-18T07:25:22.797Z,20.77
2018-12-18T07:28:00.529Z,19.10
2018-12-18T07:30:42.484Z,17.40
2018-12-18T07:33:19.777Z,18.42
2018-12-18T07:35:57.209Z,19.17
2018-12-18T07:38:32.294Z,19.95
2018-12-18T07:41:07.491Z,17.57
2018-12-18T07:43:43.074Z,16.40
2018-12-18T07:46:17.503Z,18.98
2018-12-18T07:48:51.938Z,16.05
2018-12-18T07:51:29.386Z,17.87
2018-12-18T07:54:04.705Z,19.00
2018-12-18T07:56:40.324Z,18.55
2018-12-18T07:59:17.021Z,16.62
2018-12-18T08:01:51.412Z,18.57
2018-12-18T08:04:27.771Z,15.50
2018-12-18T08:07:07.216Z,17.25
2018-12-18T08:09:41.553Z,18.60
2018-12-18T08:12:20.000Z,16.17
2018-12-18T08:15:00.321Z,16.82
2018-12-18T08:17:35.346Z,15.83
2018-12-18T08:20:09.969Z,16.60
2018-12-18T08:22:44.494Z,17.30
2018-12-18T08:25:27.742Z,16.27
2018-12-18T08:28:10.129Z,17.73
2018-12-18T08:30:45.880Z,15.48
2018-12-18T08:33:20.300Z,17.15
2018-12-18T08:36:01.595Z,15.75
2018-12-18T08:38:37.299Z,16.62
2018-12-18T08:41:12.976Z,16.42
2018-12-18T08:43:53.866Z,18.30
2018-12-18T08:46:34.625Z,15.90
2018-12-18T08:49:14.250Z,15.53
2018-12-18T08:51:49.022Z,15.00
2018-12-18T08:54:24.226Z,16.00
2018-12-18T08:56:59.885Z,15.50
2018-12-18T08:59:34.355Z,14.60
2018-12-18T09:02:08.969Z,16.35
2018-12-18T09:04:43.497Z,14.50
2018-12-18T09:07:17.868Z,15.18
2018-12-18T09:09:54.395Z,16.60
2018-12-18T09:12:28.789Z,14.23
2018-12-18T09:15:07.471Z,15.20
2018-12-18T09:17:50.139Z,13.65
2018-12-18T09:20:24.841Z,13.25
2018-12-18T09:22:59.322Z,13.50
2018-12-18T09:25:38.393Z,14.10
2018-12-18T09:28:13.006Z,13.75
2018-12-18T09:30:48.604Z,13.20
2018-12-18T09:33:22.983Z,13.10
2018-12-18T09:35:59.095Z,12.65
2018-12-18T09:38:38.862Z,12.10
2018-12-18T09:41:19.087Z,12.75
2018-12-18T09:43:59.257Z,12.40
2018-12-18T09:46:33.624Z,12.50
2018-12-18T09:51:47.007Z,10.68
2018-12-18T09:54:23.415Z,10.55
2018-12-18T09:57:07.367Z,12.28
2018-12-18T09:59:44.176Z,11.45
2018-12-18T10:02:18.886Z,10.93
2018-12-18T10:04:53.490Z,11.25
2018-12-18T10:07:28.406Z,11.85
2018-12-18T10:10:02.814Z,11.10
2018-12-18T10:12:46.338Z,10.90
2018-12-18T10:15:20.626Z,11.18
2018-12-18T10:17:55.019Z,11.08
2018-12-18T10:20:29.579Z,12.07
2018-12-18T10:23:03.966Z,11.40
2018-12-18T10:25:38.357Z,11.63
2018-12-18T10:28:12.658Z,11.50
2018-12-18T10:30:55.202Z,10.68
2018-12-18T10:33:29.581Z,11.08
2018-12-18T10:36:04.304Z,9.45
2018-12-18T10:38:38.554Z,10.93
2018-12-18T10:41:13.083Z,9.70
2018-12-18T10:43:47.482Z,8.43
2018-12-18T10:46:22.668Z,9.60
2018-12-18T10:48:57.151Z,10.75
2018-12-18T10:51:31.640Z,8.98
2018-12-18T10:54:06.060Z,10.18
2018-12-18T10:56:40.532Z,10.48
2018-12-18T10:59:15.037Z,9.95
2018-12-18T11:01:50.187Z,10.05
2018-12-18T11:04:25.823Z,9.28
2018-12-18T11:07:00.699Z,8.58
2018-12-18T11:09:35.100Z,8.00
2018-12-18T11:12:09.353Z,9.13
2018-12-18T11:14:43.833Z,9.28
2018-12-18T11:17:18.138Z,8.08
2018-12-18T11:19:52.670Z,7.95
2018-12-18T11:22:27.167Z,8.95
2018-12-18T11:25:01.577Z,9.83
2018-12-18T11:27:35.949Z,9.38
2018-12-18T11:30:10.442Z,8.68
2018-12-18T11:32:44.903Z,10.68
2018-12-18T11:35:19.210Z,8.73
2018-12-18T11:37:53.606Z,8.10
2018-12-18T11:40:29.007Z,6.95
2018-12-18T11:43:03.405Z,7.20
2018-12-18T11:45:37.799Z,7.62
2018-12-18T11:48:12.007Z,6.50
2018-12-18T11:50:47.409Z,6.55
2018-12-18T11:53:21.896Z,5.80
2018-12-18T11:55:56.285Z,5.95
2018-12-18T11:58:31.542Z,7.10
2018-12-18T12:01:06.100Z,6.47
2018-12-18T12:03:40.545Z,7.78
2018-12-18T12:06:15.006Z,6.53
2018-12-18T12:08:49.508Z,5.40
2018-12-18T12:11:23.836Z,5.95
2018-12-18T12:13:58.206Z,7.20
2018-12-18T12:16:35.128Z,6.35
2018-12-18T12:19:17.980Z,6.95
2018-12-18T12:21:52.393Z,8.50
2018-12-18T12:24:26.768Z,6.72
2018-12-18T12:27:06.767Z,6.62
2018-12-18T12:29:41.768Z,6.85
2018-12-18T12:32:16.223Z,5.85
2018-12-18T12:34:50.702Z,5.37
2018-12-18T12:37:27.209Z,6.12
2018-12-18T12:40:01.468Z,7.67
2018-12-18T12:42:35.992Z,6.80
2018-12-18T12:45:10.418Z,4.80
2018-12-18T12:47:48.691Z,6.20
2018-12-18T12:50:23.301Z,7.58
2018-12-18T12:52:57.777Z,5.83
2018-12-18T12:55:32.082Z,6.97
2018-12-18T12:58:06.651Z,6.95
2018-12-18T13:00:40.840Z,6.20
2018-12-18T13:03:15.384Z,6.78
2018-12-18T13:05:49.974Z,5.92
2018-12-18T13:08:24.384Z,5.85
2018-12-18T13:10:58.678Z,5.40
2018-12-18T13:13:33.784Z,6.37
2018-12-18T13:16:08.284Z,5.40
2018-12-18T13:18:42.682Z,5.75
2018-12-18T13:21:17.199Z,5.08
2018-12-18T13:23:51.938Z,5.25
2018-12-18T13:26:26.541Z,5.95
2018-12-18T13:29:01.119Z,5.83
2018-12-18T13:31:35.482Z,4.55
2018-12-18T13:34:09.797Z,4.95
2018-12-18T13:36:44.746Z,4.92
2018-12-18T13:39:19.227Z,4.55
2018-12-18T13:41:53.706Z,5.03
2018-12-18T13:44:28.006Z,4.75
2018-12-18T13:47:02.664Z,5.58
2018-12-18T13:49:37.291Z,5.47
2018-12-18T13:52:11.549Z,5.10
2018-12-18T13:54:45.898Z,4.72
2018-12-18T13:57:20.291Z,5.08
2018-12-18T13:59:54.635Z,5.20
2018-12-18T14:02:28.959Z,5.37
2018-12-18T14:05:03.768Z,5.15
2018-12-18T14:07:38.315Z,4.92
2018-12-18T14:10:12.655Z,4.00
2018-12-18T14:12:52.506Z,5.00
2018-12-18T14:15:26.967Z,5.28
2018-12-18T14:18:01.276Z,4.08
2018-12-18T14:20:35.526Z,4.28
2018-12-18T14:23:09.955Z,4.20
2018-12-18T14:25:44.280Z,3.30
2018-12-18T14:28:18.847Z,3.87
2018-12-18T14:30:54.223Z,4.00
2018-12-18T14:33:28.675Z,3.50
2018-12-18T14:36:03.025Z,4.33
2018-12-18T14:38:38.073Z,3.65
2018-12-18T14:41:12.761Z,3.25
2018-12-18T14:43:47.115Z,4.50
2018-12-18T14:46:21.382Z,5.87
2018-12-18T14:48:55.618Z,4.85
2018-12-18T14:51:30.053Z,3.92
2018-12-18T14:54:05.079Z,4.83
2018-12-18T14:56:39.879Z,4.95
2018-12-18T14:59:14.228Z,5.12
2018-12-18T15:01:48.734Z,7.80
2018-12-18T15:04:23.811Z,4.12
2018-12-18T15:07:02.826Z,4.72
2018-12-18T15:09:34.416Z,3.60
2018-12-18T15:12:08.866Z,4.00
2018-12-18T15:14:43.393Z,12.37
2018-12-18T15:17:17.714Z,4.85
2018-12-18T15:19:52.008Z,3.95
2018-12-18T15:22:26.396Z,4.55
2018-12-18T15:25:00.771Z,4.22
2018-12-18T15:27:35.296Z,4.00
2018-12-18T15:30:10.637Z,6.25
2018-12-18T15:32:45.127Z,5.22
2018-12-18T15:35:19.673Z,4.03
2018-12-18T15:37:54.070Z,4.85
2018-12-18T15:40:28.597Z,5.10
2018-12-18T15:43:02.872Z,4.90
2018-12-18T15:45:37.310Z,6.42
2018-12-18T15:48:12.358Z,5.67
2018-12-18T15:50:47.320Z,5.12
2018-12-18T15:53:21.795Z,5.97
2018-12-18T15:55:56.754Z,5.40
2018-12-18T15:58:31.494Z,4.60
2018-12-18T16:01:06.025Z,4.75
2018-12-18T16:03:41.355Z,6.25
2018-12-18T16:06:15.724Z,5.40
2018-12-18T16:08:50.008Z,5.65
2018-12-18T16:11:25.271Z,6.87
2018-12-18T16:13:59.631Z,6.58
2018-12-18T16:16:34.182Z,5.95
2018-12-18T16:19:08.868Z,6.90
2018-12-18T16:21:43.422Z,6.60
2018-12-18T16:24:19.064Z,6.62
2018-12-18T16:26:53.299Z,6.15
2018-12-18T16:29:28.923Z,4.97
2018-12-18T16:32:03.986Z,5.83
2018-12-18T16:34:38.634Z,7.45
2018-12-18T16:37:13.080Z,5.97
2018-12-18T16:39:47.735Z,8.15
2018-12-18T16:42:22.387Z,6.60
2018-12-18T16:44:56.926Z,6.67
2018-12-18T16:47:31.476Z,7.05
2018-12-18T16:50:06.368Z,7.30
2018-12-18T16:52:41.038Z,8.45
2018-12-18T16:55:15.568Z,7.92
2018-12-18T16:57:50.272Z,8.43
2018-12-18T17:00:24.990Z,9.75
2018-12-18T17:03:00.807Z,8.78
2018-12-18T17:05:35.128Z,9.85
2018-12-18T17:08:09.502Z,10.90
2018-12-18T17:10:46.670Z,10.20
2018-12-18T17:13:22.002Z,9.70
2018-12-18T17:15:56.279Z,10.20
2018-12-18T17:18:30.715Z,9.60
2018-12-18T17:21:05.590Z,10.00
2018-12-18T17:23:40.104Z,10.13
2018-12-18T17:26:15.682Z,10.80
2018-12-18T17:28:51.970Z,9.83
2018-12-18T17:31:27.009Z,9.25
2018-12-18T17:34:01.759Z,11.43
2018-12-18T17:36:36.957Z,12.20
2018-12-18T17:39:11.448Z,11.18
2018-12-18T17:41:48.227Z,11.38
2018-12-18T17:44:22.546Z,12.18
2018-12-18T17:46:58.499Z,10.23
2018-12-18T17:49:32.951Z,11.73
2018-12-18T17:52:08.436Z,11.22
2018-12-18T17:54:42.758Z,10.90
2018-12-18T17:57:19.943Z,12.20
2018-12-18T17:59:58.083Z,11.78
2018-12-18T18:02:32.942Z,11.20
2018-12-18T18:05:09.800Z,11.80
2018-12-18T18:07:44.414Z,13.55
2018-12-18T18:10:18.837Z,12.13
2018-12-18T18:13:03.457Z,13.22
2018-12-18T18:18:24.477Z,12.58
2018-12-18T18:21:02.621Z,14.25
2018-12-18T18:23:41.871Z,13.60
2018-12-18T18:28:55.798Z,17.15
2018-12-18T18:31:31.191Z,12.13
2018-12-18T18:34:05.668Z,14.33
2018-12-18T18:36:40.643Z,11.10
2018-12-18T18:39:15.599Z,11.50
2018-12-18T18:41:49.982Z,12.53
2018-12-18T18:44:24.475Z,11.40
2018-12-18T18:46:58.815Z,11.53
2018-12-18T18:49:33.706Z,10.43
2018-12-18T18:52:08.139Z,11.10
2018-12-18T18:57:21.592Z,9.90
2018-12-18T18:59:57.459Z,12.40
2018-12-18T19:02:31.779Z,12.13
2018-12-18T19:05:07.876Z,11.22
2018-12-18T19:07:42.151Z,12.10
2018-12-18T19:10:17.277Z,13.70
2018-12-18T19:12:56.236Z,12.37
2018-12-18T19:15:30.532Z,11.73
2018-12-18T19:18:10.735Z,11.33
2018-12-18T19:20:49.003Z,11.12
2018-12-18T19:23:25.702Z,11.60
2018-12-18T19:26:00.825Z,11.80
2018-12-18T19:28:36.126Z,11.33
2018-12-18T19:31:13.908Z,11.08
2018-12-18T19:33:48.387Z,10.90
2018-12-18T19:36:27.449Z,12.00
2018-12-18T19:39:08.766Z,12.10
2018-12-18T19:41:48.567Z,12.07
2018-12-18T19:44:34.726Z,11.40
2018-12-18T19:47:13.717Z,11.48
2018-12-18T19:49:48.791Z,11.20
2018-12-18T19:52:31.864Z,10.38
2018-12-18T19:55:18.066Z,9.33
2018-12-18T20:06:24.662Z,9.60
2018-12-18T20:28:50.993Z,9.08
2018-12-18T20:31:31.787Z,8.30
2018-12-18T20:34:07.009Z,8.58
2018-12-18T20:36:43.131Z,8.20
2018-12-18T20:39:19.182Z,8.88
2018-12-18T20:41:56.352Z,9.75
2018-12-18T20:44:39.431Z,9.23
2018-12-18T20:47:18.561Z,9.30
2018-12-18T20:55:58.439Z,8.75
2018-12-18T20:58:43.864Z,7.97
2018-12-18T21:01:22.062Z,9.88
2018-12-18T21:04:04.941Z,9.33
2018-12-18T21:06:42.872Z,8.98
2018-12-18T21:09:25.407Z,8.90
2018-12-18T21:14:51.391Z,8.43
2018-12-18T21:17:28.702Z,8.93
2018-12-18T21:20:04.258Z,9.35
2018-12-18T21:22:47.487Z,8.10
2018-12-18T21:25:29.908Z,9.25
2018-12-18T21:28:05.276Z,8.05
2018-12-18T21:30:48.486Z,8.18
2018-12-18T21:33:25.992Z,8.90
2018-12-18T21:36:03.275Z,8.43
2018-12-18T21:38:38.600Z,10.18
2018-12-18T21:41:13.296Z,8.43
2018-12-18T21:43:50.919Z,8.95
2018-12-18T21:46:26.357Z,10.40
2018-12-18T21:49:01.143Z,9.68
2018-12-18T21:51:36.173Z,9.75
2018-12-18T21:54:19.660Z,10.65
2018-12-18T21:57:00.876Z,10.08
2018-12-18T21:59:47.797Z,8.98
2018-12-18T22:02:22.986Z,8.83
2018-12-18T22:04:59.961Z,8.48
2018-12-18T22:07:38.691Z,9.08
2018-12-18T22:10:14.749Z,9.38
2018-12-18T22:12:55.512Z,10.00
2018-12-18T22:15:40.785Z,9.35
2018-12-18T22:18:16.020Z,8.55
2018-12-18T22:20:53.146Z,8.63
2018-12-18T22:23:42.490Z,8.68
2018-12-18T22:26:24.116Z,9.23
2018-12-18T22:29:04.895Z,9.05
2018-12-18T22:31:40.490Z,9.63
2018-12-18T22:34:16.515Z,9.28
2018-12-18T22:36:53.273Z,9.18
2018-12-18T22:39:28.973Z,9.75
2018-12-18T22:42:05.455Z,9.13
2018-12-18T22:44:41.624Z,10.15
2018-12-18T22:47:16.268Z,9.88
2018-12-18T22:49:53.501Z,8.98
2018-12-18T22:52:27.936Z,9.75
2018-12-18T22:55:02.814Z,10.13
2018-12-18T22:57:37.824Z,10.80
2018-12-18T23:00:17.858Z,11.73
2018-12-18T23:02:52.593Z,12.00
2018-12-18T23:05:28.150Z,9.90
2018-12-18T23:08:02.774Z,10.38
2018-12-18T23:10:38.206Z,10.68
2018-12-18T23:13:17.591Z,9.95
2018-12-18T23:15:54.054Z,10.80
2018-12-18T23:18:28.851Z,10.40
2018-12-18T23:21:03.744Z,11.55
2018-12-18T23:23:39.755Z,7.75
2018-12-18T23:26:18.597Z,9.53
2018-12-18T23:28:55.166Z,8.85
2018-12-18T23:31:30.167Z,8.30
2018-12-18T23:34:09.387Z,7.95
2018-12-18T23:36:46.143Z,7.22
2018-12-18T23:39:20.816Z,6.97
2018-12-18T23:41:56.775Z,6.67
2018-12-18T23:44:32.207Z,6.85
2018-12-18T23:47:10.483Z,6.87
2018-12-18T23:49:44.967Z,6.80
2018-12-18T23:52:19.892Z,7.30
2018-12-18T23:57:53.738Z,7.75
